sensor_id;sensor_type;location;lat;lon;timestamp;P1;durP1;ratioP1;P2;durP2;ratioP2
69594;SDS011;56800;52.142;5.364;2022-07-23T00:00:13;5.05;;;2.10;;
69594;SDS011;56800;52.142;5.364;2022-07-23T00:02:40;4.37;;;2.40;;
69594;SDS011;56800;52.142;5.364;2022-07-23T00:05:07;6.63;;;2.20;;
69594;SDS011;56800;52.142;5.364;2022-07-23T00:07:34;5.00;;;2.10;;
69594;SDS011;56800;52.142;5.364;2022-07-23T00:10:01;6.85;;;2.33;;
69594;SDS011;56800;52.142;5.364;2022-07-23T00:12:29;5.28;;;2.90;;
69594;SDS011;56800;52.142;5.364;2022-07-23T00:14:55;5.40;;;2.30;;
69594;SDS011;56800;52.142;5.364;2022-07-23T00:17:22;4.55;;;2.17;;
69594;SDS011;56800;52.142;5.364;2022-07-23T00:19:49;7.30;;;2.97;;
69594;SDS011;56800;52.142;5.364;2022-07-23T00:22:15;5.50;;;2.85;;
69594;SDS011;56800;52.142;5.364;2022-07-23T00:24:42;4.60;;;2.42;;
69594;SDS011;56800;52.142;5.364;2022-07-23T00:27:28;7.33;;;2.50;;
69594;SDS011;56800;52.142;5.364;2022-07-23T00:29:55;3.92;;;2.70;;
69594;SDS011;56800;52.142;5.364;2022-07-23T00:32:22;5.32;;;2.47;;
69594;SDS011;56800;52.142;5.364;2022-07-23T00:35:08;6.57;;;2.83;;
69594;SDS011;56800;52.142;5.364;2022-07-23T00:37:35;3.80;;;2.20;;
69594;SDS011;56800;52.142;5.364;2022-07-23T00:40:02;5.83;;;2.27;;
69594;SDS011;56800;52.142;5.364;2022-07-23T00:42:30;5.35;;;2.65;;
69594;SDS011;56800;52.142;5.364;2022-07-23T00:44:57;5.75;;;3.33;;
69594;SDS011;56800;52.142;5.364;2022-07-23T00:47:24;4.85;;;2.75;;
69594;SDS011;56800;52.142;5.364;2022-07-23T00:49:51;6.13;;;2.90;;
69594;SDS011;56800;52.142;5.364;2022-07-23T00:52:17;6.27;;;2.80;;
69594;SDS011;56800;52.142;5.364;2022-07-23T00:54:45;5.45;;;2.40;;
69594;SDS011;56800;52.142;5.364;2022-07-23T00:57:11;4.97;;;2.47;;
69594;SDS011;56800;52.142;5.364;2022-07-23T00:59:39;5.95;;;2.50;;
69594;SDS011;56800;52.142;5.364;2022-07-23T01:02:06;4.97;;;2.75;;
69594;SDS011;56800;52.142;5.364;2022-07-23T01:04:33;5.33;;;3.07;;
69594;SDS011;56800;52.142;5.364;2022-07-23T01:07:00;5.50;;;2.70;;
69594;SDS011;56800;52.142;5.364;2022-07-23T01:09:27;4.90;;;2.90;;
69594;SDS011;56800;52.142;5.364;2022-07-23T01:11:55;5.72;;;2.92;;
69594;SDS011;56800;52.142;5.364;2022-07-23T01:14:23;7.35;;;3.50;;
69594;SDS011;56800;52.142;5.364;2022-07-23T01:16:50;5.03;;;3.30;;
69594;SDS011;56800;52.142;5.364;2022-07-23T01:19:17;6.88;;;3.28;;
69594;SDS011;56800;52.142;5.364;2022-07-23T01:21:46;6.43;;;3.63;;
69594;SDS011;56800;52.142;5.364;2022-07-23T01:24:15;8.60;;;3.45;;
69594;SDS011;56800;52.142;5.364;2022-07-23T01:26:45;6.72;;;3.25;;
69594;SDS011;56800;52.142;5.364;2022-07-23T01:29:14;6.70;;;2.93;;
69594;SDS011;56800;52.142;5.364;2022-07-23T01:31:41;5.60;;;2.78;;
69594;SDS011;56800;52.142;5.364;2022-07-23T01:34:08;5.70;;;3.33;;
69594;SDS011;56800;52.142;5.364;2022-07-23T01:36:35;5.38;;;2.85;;
69594;SDS011;56800;52.142;5.364;2022-07-23T01:39:05;6.50;;;2.80;;
69594;SDS011;56800;52.142;5.364;2022-07-23T01:41:33;5.00;;;2.97;;
69594;SDS011;56800;52.142;5.364;2022-07-23T01:44:00;4.15;;;3.17;;
69594;SDS011;56800;52.142;5.364;2022-07-23T01:46:27;7.93;;;3.28;;
69594;SDS011;56800;52.142;5.364;2022-07-23T01:48:54;6.80;;;2.90;;
69594;SDS011;56800;52.142;5.364;2022-07-23T01:51:20;6.95;;;3.00;;
69594;SDS011;56800;52.142;5.364;2022-07-23T01:53:47;6.60;;;2.67;;
69594;SDS011;56800;52.142;5.364;2022-07-23T01:56:14;6.65;;;3.58;;
69594;SDS011;56800;52.142;5.364;2022-07-23T01:58:41;6.95;;;3.33;;
69594;SDS011;56800;52.142;5.364;2022-07-23T02:01:08;5.93;;;3.20;;
69594;SDS011;56800;52.142;5.364;2022-07-23T02:03:34;7.63;;;3.50;;
69594;SDS011;56800;52.142;5.364;2022-07-23T02:06:01;6.87;;;4.10;;
69594;SDS011;56800;52.142;5.364;2022-07-23T02:08:28;4.70;;;3.58;;
69594;SDS011;56800;52.142;5.364;2022-07-23T02:10:54;6.25;;;3.75;;
69594;SDS011;56800;52.142;5.364;2022-07-23T02:13:21;6.55;;;4.20;;
69594;SDS011;56800;52.142;5.364;2022-07-23T02:15:48;6.32;;;4.10;;
69594;SDS011;56800;52.142;5.364;2022-07-23T02:18:15;5.70;;;3.83;;
69594;SDS011;56800;52.142;5.364;2022-07-23T02:20:42;7.00;;;4.00;;
69594;SDS011;56800;52.142;5.364;2022-07-23T02:23:08;6.95;;;4.18;;
69594;SDS011;56800;52.142;5.364;2022-07-23T02:25:35;7.28;;;4.15;;
69594;SDS011;56800;52.142;5.364;2022-07-23T02:28:02;6.53;;;4.80;;
69594;SDS011;56800;52.142;5.364;2022-07-23T02:30:29;6.50;;;4.57;;
69594;SDS011;56800;52.142;5.364;2022-07-23T02:32:55;7.70;;;4.47;;
69594;SDS011;56800;52.142;5.364;2022-07-23T02:35:22;6.63;;;4.57;;
69594;SDS011;56800;52.142;5.364;2022-07-23T02:37:49;9.88;;;4.75;;
69594;SDS011;56800;52.142;5.364;2022-07-23T02:40:16;6.95;;;4.28;;
69594;SDS011;56800;52.142;5.364;2022-07-23T02:42:44;7.70;;;4.23;;
69594;SDS011;56800;52.142;5.364;2022-07-23T02:45:10;5.97;;;4.03;;
69594;SDS011;56800;52.142;5.364;2022-07-23T02:47:37;5.53;;;4.30;;
69594;SDS011;56800;52.142;5.364;2022-07-23T02:50:04;7.57;;;4.90;;
69594;SDS011;56800;52.142;5.364;2022-07-23T02:52:31;7.65;;;4.68;;
69594;SDS011;56800;52.142;5.364;2022-07-23T02:54:58;8.53;;;5.20;;
69594;SDS011;56800;52.142;5.364;2022-07-23T02:57:25;6.43;;;4.68;;
69594;SDS011;56800;52.142;5.364;2022-07-23T02:59:51;7.00;;;5.13;;
69594;SDS011;56800;52.142;5.364;2022-07-23T03:02:18;9.18;;;5.72;;
69594;SDS011;56800;52.142;5.364;2022-07-23T03:04:45;9.20;;;5.55;;
69594;SDS011;56800;52.142;5.364;2022-07-23T03:07:11;8.27;;;5.27;;
69594;SDS011;56800;52.142;5.364;2022-07-23T03:09:38;8.98;;;5.47;;
69594;SDS011;56800;52.142;5.364;2022-07-23T03:12:05;8.40;;;5.70;;
69594;SDS011;56800;52.142;5.364;2022-07-23T03:14:39;8.45;;;5.20;;
69594;SDS011;56800;52.142;5.364;2022-07-23T03:17:07;9.25;;;6.20;;
69594;SDS011;56800;52.142;5.364;2022-07-23T03:19:34;10.00;;;5.73;;
69594;SDS011;56800;52.142;5.364;2022-07-23T03:22:02;9.48;;;5.93;;
69594;SDS011;56800;52.142;5.364;2022-07-23T03:24:29;8.60;;;6.07;;
69594;SDS011;56800;52.142;5.364;2022-07-23T03:27:15;7.93;;;6.22;;
69594;SDS011;56800;52.142;5.364;2022-07-23T03:29:41;9.45;;;6.63;;
69594;SDS011;56800;52.142;5.364;2022-07-23T03:32:08;10.50;;;6.00;;
69594;SDS011;56800;52.142;5.364;2022-07-23T03:34:36;9.25;;;6.65;;
69594;SDS011;56800;52.142;5.364;2022-07-23T03:37:03;9.82;;;6.50;;
69594;SDS011;56800;52.142;5.364;2022-07-23T03:39:31;9.02;;;6.22;;
69594;SDS011;56800;52.142;5.364;2022-07-23T03:41:58;11.35;;;6.25;;
69594;SDS011;56800;52.142;5.364;2022-07-23T03:44:25;11.40;;;6.23;;
69594;SDS011;56800;52.142;5.364;2022-07-23T03:46:52;9.18;;;6.50;;
69594;SDS011;56800;52.142;5.364;2022-07-23T03:49:19;8.55;;;6.57;;
69594;SDS011;56800;52.142;5.364;2022-07-23T03:51:49;10.65;;;6.00;;
69594;SDS011;56800;52.142;5.364;2022-07-23T03:54:16;10.32;;;6.38;;
69594;SDS011;56800;52.142;5.364;2022-07-23T03:56:43;8.30;;;5.97;;
69594;SDS011;56800;52.142;5.364;2022-07-23T03:59:09;9.15;;;6.22;;
69594;SDS011;56800;52.142;5.364;2022-07-23T04:01:36;9.55;;;5.50;;
69594;SDS011;56800;52.142;5.364;2022-07-23T04:04:03;8.40;;;5.97;;
69594;SDS011;56800;52.142;5.364;2022-07-23T04:06:30;9.68;;;6.03;;
69594;SDS011;56800;52.142;5.364;2022-07-23T04:08:58;8.47;;;6.13;;
69594;SDS011;56800;52.142;5.364;2022-07-23T04:11:25;8.48;;;5.95;;
69594;SDS011;56800;52.142;5.364;2022-07-23T04:13:55;9.77;;;6.18;;
69594;SDS011;56800;52.142;5.364;2022-07-23T04:16:32;9.95;;;6.07;;
69594;SDS011;56800;52.142;5.364;2022-07-23T04:19:00;8.98;;;5.68;;
69594;SDS011;56800;52.142;5.364;2022-07-23T04:21:27;10.10;;;5.67;;
69594;SDS011;56800;52.142;5.364;2022-07-23T04:23:55;11.73;;;6.20;;
69594;SDS011;56800;52.142;5.364;2022-07-23T04:26:22;8.07;;;5.55;;
69594;SDS011;56800;52.142;5.364;2022-07-23T04:28:49;9.13;;;5.30;;
69594;SDS011;56800;52.142;5.364;2022-07-23T04:31:15;8.70;;;5.45;;
69594;SDS011;56800;52.142;5.364;2022-07-23T04:33:42;8.23;;;5.67;;
69594;SDS011;56800;52.142;5.364;2022-07-23T04:36:12;8.10;;;5.80;;
69594;SDS011;56800;52.142;5.364;2022-07-23T04:38:39;7.68;;;5.32;;
69594;SDS011;56800;52.142;5.364;2022-07-23T04:41:06;8.75;;;5.65;;
69594;SDS011;56800;52.142;5.364;2022-07-23T04:43:32;9.43;;;5.13;;
69594;SDS011;56800;52.142;5.364;2022-07-23T04:45:59;7.97;;;5.63;;
69594;SDS011;56800;52.142;5.364;2022-07-23T04:48:26;9.10;;;5.68;;
69594;SDS011;56800;52.142;5.364;2022-07-23T04:50:53;15.15;;;5.82;;
69594;SDS011;56800;52.142;5.364;2022-07-23T04:53:20;8.60;;;5.32;;
69594;SDS011;56800;52.142;5.364;2022-07-23T04:55:46;9.15;;;5.22;;
69594;SDS011;56800;52.142;5.364;2022-07-23T04:58:13;10.90;;;5.93;;
69594;SDS011;56800;52.142;5.364;2022-07-23T05:00:40;9.70;;;6.40;;
69594;SDS011;56800;52.142;5.364;2022-07-23T05:03:07;10.15;;;6.03;;
69594;SDS011;56800;52.142;5.364;2022-07-23T05:05:34;10.57;;;6.50;;
69594;SDS011;56800;52.142;5.364;2022-07-23T05:08:01;8.35;;;6.05;;
69594;SDS011;56800;52.142;5.364;2022-07-23T05:10:28;10.67;;;6.23;;
69594;SDS011;56800;52.142;5.364;2022-07-23T05:12:55;10.95;;;6.10;;
69594;SDS011;56800;52.142;5.364;2022-07-23T05:15:21;9.85;;;5.35;;
69594;SDS011;56800;52.142;5.364;2022-07-23T05:17:48;7.55;;;5.50;;
69594;SDS011;56800;52.142;5.364;2022-07-23T05:20:15;8.05;;;5.55;;
69594;SDS011;56800;52.142;5.364;2022-07-23T05:22:42;10.63;;;6.00;;
69594;SDS011;56800;52.142;5.364;2022-07-23T05:25:08;8.77;;;5.20;;
69594;SDS011;56800;52.142;5.364;2022-07-23T05:27:35;12.43;;;5.88;;
69594;SDS011;56800;52.142;5.364;2022-07-23T05:30:02;8.20;;;6.05;;
69594;SDS011;56800;52.142;5.364;2022-07-23T05:32:30;8.73;;;5.90;;
69594;SDS011;56800;52.142;5.364;2022-07-23T05:34:58;12.13;;;5.97;;
69594;SDS011;56800;52.142;5.364;2022-07-23T05:37:25;8.88;;;5.53;;
69594;SDS011;56800;52.142;5.364;2022-07-23T05:39:51;13.40;;;5.43;;
69594;SDS011;56800;52.142;5.364;2022-07-23T05:42:18;8.60;;;5.35;;
69594;SDS011;56800;52.142;5.364;2022-07-23T05:44:44;8.55;;;5.25;;
69594;SDS011;56800;52.142;5.364;2022-07-23T05:47:11;6.97;;;5.20;;
69594;SDS011;56800;52.142;5.364;2022-07-23T05:49:38;11.95;;;5.75;;
69594;SDS011;56800;52.142;5.364;2022-07-23T05:52:05;9.90;;;5.10;;
69594;SDS011;56800;52.142;5.364;2022-07-23T05:54:36;10.68;;;5.00;;
69594;SDS011;56800;52.142;5.364;2022-07-23T05:57:03;8.13;;;5.03;;
69594;SDS011;56800;52.142;5.364;2022-07-23T05:59:30;8.47;;;5.40;;
69594;SDS011;56800;52.142;5.364;2022-07-23T06:01:57;8.20;;;5.15;;
69594;SDS011;56800;52.142;5.364;2022-07-23T06:04:23;11.95;;;5.63;;
69594;SDS011;56800;52.142;5.364;2022-07-23T06:06:50;9.18;;;5.22;;
69594;SDS011;56800;52.142;5.364;2022-07-23T06:09:17;11.82;;;4.90;;
69594;SDS011;56800;52.142;5.364;2022-07-23T06:11:44;8.83;;;4.50;;
69594;SDS011;56800;52.142;5.364;2022-07-23T06:14:10;9.80;;;4.93;;
69594;SDS011;56800;52.142;5.364;2022-07-23T06:16:37;9.15;;;4.32;;
69594;SDS011;56800;52.142;5.364;2022-07-23T06:19:04;9.88;;;4.68;;
69594;SDS011;56800;52.142;5.364;2022-07-23T06:21:30;9.10;;;4.30;;
69594;SDS011;56800;52.142;5.364;2022-07-23T06:24:13;9.57;;;3.87;;
69594;SDS011;56800;52.142;5.364;2022-07-23T06:26:40;7.10;;;3.90;;
69594;SDS011;56800;52.142;5.364;2022-07-23T06:29:07;11.45;;;3.50;;
69594;SDS011;56800;52.142;5.364;2022-07-23T06:31:33;5.65;;;2.75;;
69594;SDS011;56800;52.142;5.364;2022-07-23T06:34:00;6.82;;;2.50;;
69594;SDS011;56800;52.142;5.364;2022-07-23T06:36:27;9.27;;;2.40;;
69594;SDS011;56800;52.142;5.364;2022-07-23T06:38:54;4.80;;;1.85;;
69594;SDS011;56800;52.142;5.364;2022-07-23T06:41:20;5.78;;;2.10;;
69594;SDS011;56800;52.142;5.364;2022-07-23T06:43:48;4.75;;;1.98;;
69594;SDS011;56800;52.142;5.364;2022-07-23T06:46:15;4.60;;;1.90;;
69594;SDS011;56800;52.142;5.364;2022-07-23T06:48:42;4.90;;;2.10;;
69594;SDS011;56800;52.142;5.364;2022-07-23T06:51:09;4.65;;;2.17;;
69594;SDS011;56800;52.142;5.364;2022-07-23T06:53:36;3.40;;;2.03;;
69594;SDS011;56800;52.142;5.364;2022-07-23T06:56:03;6.53;;;2.15;;
69594;SDS011;56800;52.142;5.364;2022-07-23T06:58:29;3.67;;;2.15;;
69594;SDS011;56800;52.142;5.364;2022-07-23T07:00:56;5.83;;;1.97;;
69594;SDS011;56800;52.142;5.364;2022-07-23T07:03:23;6.38;;;1.50;;
69594;SDS011;56800;52.142;5.364;2022-07-23T07:05:49;6.10;;;1.90;;
69594;SDS011;56800;52.142;5.364;2022-07-23T07:08:16;4.47;;;1.92;;
69594;SDS011;56800;52.142;5.364;2022-07-23T07:10:43;8.27;;;2.00;;
69594;SDS011;56800;52.142;5.364;2022-07-23T07:13:09;6.33;;;2.03;;
69594;SDS011;56800;52.142;5.364;2022-07-23T07:15:36;5.28;;;2.00;;
69594;SDS011;56800;52.142;5.364;2022-07-23T07:18:03;6.93;;;1.90;;
69594;SDS011;56800;52.142;5.364;2022-07-23T07:20:29;5.43;;;1.98;;
69594;SDS011;56800;52.142;5.364;2022-07-23T07:22:56;6.25;;;1.90;;
69594;SDS011;56800;52.142;5.364;2022-07-23T07:25:23;6.77;;;2.00;;
69594;SDS011;56800;52.142;5.364;2022-07-23T07:27:49;5.50;;;1.90;;
69594;SDS011;56800;52.142;5.364;2022-07-23T07:30:16;8.43;;;2.53;;
69594;SDS011;56800;52.142;5.364;2022-07-23T07:32:43;4.45;;;2.10;;
69594;SDS011;56800;52.142;5.364;2022-07-23T07:35:25;6.75;;;2.22;;
69594;SDS011;56800;52.142;5.364;2022-07-23T07:37:52;3.90;;;1.70;;
69594;SDS011;56800;52.142;5.364;2022-07-23T07:40:19;3.60;;;1.88;;
69594;SDS011;56800;52.142;5.364;2022-07-23T07:42:47;4.72;;;1.90;;
69594;SDS011;56800;52.142;5.364;2022-07-23T07:45:15;5.40;;;1.85;;
69594;SDS011;56800;52.142;5.364;2022-07-23T07:47:42;4.70;;;2.05;;
69594;SDS011;56800;52.142;5.364;2022-07-23T07:50:09;4.28;;;1.77;;
69594;SDS011;56800;52.142;5.364;2022-07-23T07:52:37;8.32;;;1.80;;
69594;SDS011;56800;52.142;5.364;2022-07-23T07:55:05;4.75;;;1.90;;
69594;SDS011;56800;52.142;5.364;2022-07-23T07:57:33;5.25;;;1.80;;
69594;SDS011;56800;52.142;5.364;2022-07-23T08:00:02;4.68;;;1.90;;
69594;SDS011;56800;52.142;5.364;2022-07-23T08:02:42;5.72;;;2.10;;
69594;SDS011;56800;52.142;5.364;2022-07-23T08:05:11;4.95;;;1.80;;
69594;SDS011;56800;52.142;5.364;2022-07-23T08:07:38;5.10;;;2.00;;
69594;SDS011;56800;52.142;5.364;2022-07-23T08:10:06;6.00;;;2.20;;
69594;SDS011;56800;52.142;5.364;2022-07-23T08:12:41;4.45;;;2.03;;
69594;SDS011;56800;52.142;5.364;2022-07-23T08:15:14;3.70;;;2.20;;
69594;SDS011;56800;52.142;5.364;2022-07-23T08:17:45;10.90;;;2.22;;
69594;SDS011;56800;52.142;5.364;2022-07-23T08:20:14;6.95;;;2.38;;
69594;SDS011;56800;52.142;5.364;2022-07-23T08:22:49;8.35;;;2.67;;
69594;SDS011;56800;52.142;5.364;2022-07-23T08:27:53;7.07;;;2.22;;
69594;SDS011;56800;52.142;5.364;2022-07-23T08:30:20;8.38;;;2.13;;
69594;SDS011;56800;52.142;5.364;2022-07-23T08:33:09;7.10;;;1.90;;
69594;SDS011;56800;52.142;5.364;2022-07-23T08:35:59;6.30;;;1.90;;
69594;SDS011;56800;52.142;5.364;2022-07-23T08:38:28;4.82;;;1.90;;
69594;SDS011;56800;52.142;5.364;2022-07-23T08:40:55;4.05;;;1.73;;
69594;SDS011;56800;52.142;5.364;2022-07-23T08:43:24;4.13;;;1.83;;
69594;SDS011;56800;52.142;5.364;2022-07-23T08:45:53;4.43;;;2.13;;
69594;SDS011;56800;52.142;5.364;2022-07-23T08:48:27;7.70;;;1.80;;
69594;SDS011;56800;52.142;5.364;2022-07-23T08:50:57;5.18;;;1.55;;
69594;SDS011;56800;52.142;5.364;2022-07-23T08:53:27;6.07;;;1.80;;
69594;SDS011;56800;52.142;5.364;2022-07-23T08:55:56;4.80;;;1.80;;
69594;SDS011;56800;52.142;5.364;2022-07-23T08:58:24;5.15;;;2.10;;
69594;SDS011;56800;52.142;5.364;2022-07-23T09:00:54;4.13;;;1.63;;
69594;SDS011;56800;52.142;5.364;2022-07-23T09:03:24;4.22;;;1.73;;
69594;SDS011;56800;52.142;5.364;2022-07-23T09:05:55;5.50;;;1.65;;
69594;SDS011;56800;52.142;5.364;2022-07-23T09:11:03;5.53;;;2.17;;
69594;SDS011;56800;52.142;5.364;2022-07-23T09:13:33;7.50;;;1.75;;
69594;SDS011;56800;52.142;5.364;2022-07-23T09:18:36;5.47;;;1.70;;
69594;SDS011;56800;52.142;5.364;2022-07-23T09:21:09;3.90;;;1.63;;
69594;SDS011;56800;52.142;5.364;2022-07-23T09:23:45;4.05;;;1.80;;
69594;SDS011;56800;52.142;5.364;2022-07-23T09:26:19;7.57;;;2.17;;
69594;SDS011;56800;52.142;5.364;2022-07-23T09:28:50;4.10;;;1.83;;
69594;SDS011;56800;52.142;5.364;2022-07-23T09:31:22;6.05;;;2.13;;
69594;SDS011;56800;52.142;5.364;2022-07-23T09:33:50;6.22;;;1.75;;
69594;SDS011;56800;52.142;5.364;2022-07-23T09:36:29;5.38;;;1.92;;
69594;SDS011;56800;52.142;5.364;2022-07-23T09:38:56;5.47;;;1.98;;
69594;SDS011;56800;52.142;5.364;2022-07-23T09:41:23;5.78;;;2.17;;
69594;SDS011;56800;52.142;5.364;2022-07-23T09:43:56;2.90;;;1.40;;
69594;SDS011;56800;52.142;5.364;2022-07-23T09:46:25;9.57;;;2.10;;
69594;SDS011;56800;52.142;5.364;2022-07-23T09:48:53;2.80;;;1.60;;
69594;SDS011;56800;52.142;5.364;2022-07-23T09:51:24;3.42;;;1.95;;
69594;SDS011;56800;52.142;5.364;2022-07-23T09:54:00;8.32;;;1.60;;
69594;SDS011;56800;52.142;5.364;2022-07-23T09:56:27;4.32;;;2.38;;
69594;SDS011;56800;52.142;5.364;2022-07-23T09:58:54;3.33;;;1.50;;
69594;SDS011;56800;52.142;5.364;2022-07-23T10:01:32;3.78;;;1.70;;
69594;SDS011;56800;52.142;5.364;2022-07-23T10:04:00;4.10;;;1.48;;
69594;SDS011;56800;52.142;5.364;2022-07-23T10:06:28;5.80;;;1.85;;
69594;SDS011;56800;52.142;5.364;2022-07-23T10:08:57;4.85;;;1.95;;
69594;SDS011;56800;52.142;5.364;2022-07-23T10:11:25;6.35;;;1.80;;
69594;SDS011;56800;52.142;5.364;2022-07-23T10:13:53;4.32;;;1.75;;
69594;SDS011;56800;52.142;5.364;2022-07-23T10:16:21;4.63;;;1.90;;
69594;SDS011;56800;52.142;5.364;2022-07-23T10:18:52;4.25;;;2.03;;
69594;SDS011;56800;52.142;5.364;2022-07-23T10:24:49;5.63;;;1.73;;
69594;SDS011;56800;52.142;5.364;2022-07-23T10:33:12;5.18;;;1.63;;
69594;SDS011;56800;52.142;5.364;2022-07-23T10:35:59;8.20;;;2.20;;
69594;SDS011;56800;52.142;5.364;2022-07-23T10:38:43;5.25;;;1.88;;
69594;SDS011;56800;52.142;5.364;2022-07-23T10:41:32;6.55;;;1.80;;
69594;SDS011;56800;52.142;5.364;2022-07-23T10:44:08;6.07;;;1.98;;
69594;SDS011;56800;52.142;5.364;2022-07-23T10:49:38;5.53;;;2.00;;
69594;SDS011;56800;52.142;5.364;2022-07-23T10:54:43;4.68;;;1.85;;
69594;SDS011;56800;52.142;5.364;2022-07-23T10:57:12;3.80;;;2.25;;
69594;SDS011;56800;52.142;5.364;2022-07-23T11:02:35;3.90;;;1.90;;
69594;SDS011;56800;52.142;5.364;2022-07-23T11:08:10;3.10;;;1.65;;
69594;SDS011;56800;52.142;5.364;2022-07-23T11:11:26;4.85;;;2.00;;
69594;SDS011;56800;52.142;5.364;2022-07-23T11:13:46;4.45;;;2.40;;
69594;SDS011;56800;52.142;5.364;2022-07-23T11:16:14;7.18;;;2.45;;
69594;SDS011;56800;52.142;5.364;2022-07-23T11:18:53;3.83;;;1.88;;
69594;SDS011;56800;52.142;5.364;2022-07-23T11:24:05;4.20;;;2.17;;
69594;SDS011;56800;52.142;5.364;2022-07-23T11:31:55;3.70;;;2.20;;
69594;SDS011;56800;52.142;5.364;2022-07-23T11:34:33;5.13;;;2.58;;
69594;SDS011;56800;52.142;5.364;2022-07-23T11:40:02;6.10;;;2.40;;
69594;SDS011;56800;52.142;5.364;2022-07-23T11:42:35;5.28;;;2.45;;
69594;SDS011;56800;52.142;5.364;2022-07-23T11:45:04;5.00;;;2.20;;
69594;SDS011;56800;52.142;5.364;2022-07-23T11:47:31;4.22;;;1.90;;
69594;SDS011;56800;52.142;5.364;2022-07-23T11:49:59;4.97;;;2.13;;
69594;SDS011;56800;52.142;5.364;2022-07-23T11:52:27;4.28;;;2.55;;
69594;SDS011;56800;52.142;5.364;2022-07-23T11:57:30;5.22;;;2.25;;
69594;SDS011;56800;52.142;5.364;2022-07-23T12:00:04;3.85;;;2.22;;
69594;SDS011;56800;52.142;5.364;2022-07-23T12:02:38;6.43;;;2.50;;
69594;SDS011;56800;52.142;5.364;2022-07-23T12:05:12;4.10;;;2.42;;
69594;SDS011;56800;52.142;5.364;2022-07-23T12:07:59;4.45;;;1.88;;
69594;SDS011;56800;52.142;5.364;2022-07-23T12:10:28;5.25;;;2.40;;
69594;SDS011;56800;52.142;5.364;2022-07-23T12:13:03;5.47;;;2.17;;
69594;SDS011;56800;52.142;5.364;2022-07-23T12:15:40;5.00;;;2.13;;
69594;SDS011;56800;52.142;5.364;2022-07-23T12:18:17;3.63;;;2.05;;
69594;SDS011;56800;52.142;5.364;2022-07-23T12:20:52;3.50;;;2.15;;
69594;SDS011;56800;52.142;5.364;2022-07-23T12:23:22;3.17;;;1.83;;
69594;SDS011;56800;52.142;5.364;2022-07-23T12:25:53;6.25;;;2.42;;
69594;SDS011;56800;52.142;5.364;2022-07-23T12:28:21;4.55;;;1.75;;
69594;SDS011;56800;52.142;5.364;2022-07-23T12:30:59;3.58;;;2.42;;
69594;SDS011;56800;52.142;5.364;2022-07-23T12:33:27;5.10;;;2.60;;
69594;SDS011;56800;52.142;5.364;2022-07-23T12:35:57;4.93;;;2.20;;
69594;SDS011;56800;52.142;5.364;2022-07-23T12:38:26;3.58;;;2.30;;
69594;SDS011;56800;52.142;5.364;2022-07-23T12:40:58;4.28;;;2.35;;
69594;SDS011;56800;52.142;5.364;2022-07-23T12:43:30;4.38;;;2.65;;
69594;SDS011;56800;52.142;5.364;2022-07-23T12:46:12;5.78;;;2.78;;
69594;SDS011;56800;52.142;5.364;2022-07-23T12:51:20;2.33;;;2.10;;
69594;SDS011;56800;52.142;5.364;2022-07-23T12:54:10;5.50;;;2.80;;
69594;SDS011;56800;52.142;5.364;2022-07-23T12:56:37;4.30;;;2.70;;
69594;SDS011;56800;52.142;5.364;2022-07-23T12:59:14;3.85;;;2.80;;
69594;SDS011;56800;52.142;5.364;2022-07-23T13:01:44;4.53;;;2.80;;
69594;SDS011;56800;52.142;5.364;2022-07-23T13:04:21;3.20;;;2.50;;
69594;SDS011;56800;52.142;5.364;2022-07-23T13:06:50;3.90;;;2.25;;
69594;SDS011;56800;52.142;5.364;2022-07-23T13:09:25;4.68;;;2.92;;
69594;SDS011;56800;52.142;5.364;2022-07-23T13:11:59;4.47;;;2.60;;
69594;SDS011;56800;52.142;5.364;2022-07-23T13:14:26;4.70;;;2.85;;
69594;SDS011;56800;52.142;5.364;2022-07-23T13:16:54;5.00;;;2.85;;
69594;SDS011;56800;52.142;5.364;2022-07-23T13:19:24;6.03;;;2.70;;
69594;SDS011;56800;52.142;5.364;2022-07-23T13:21:53;4.78;;;2.53;;
69594;SDS011;56800;52.142;5.364;2022-07-23T13:24:20;4.35;;;2.63;;
69594;SDS011;56800;52.142;5.364;2022-07-23T13:26:47;3.60;;;2.30;;
69594;SDS011;56800;52.142;5.364;2022-07-23T13:29:15;6.35;;;2.50;;
69594;SDS011;56800;52.142;5.364;2022-07-23T13:31:45;4.72;;;2.85;;
69594;SDS011;56800;52.142;5.364;2022-07-23T13:34:11;4.45;;;2.78;;
69594;SDS011;56800;52.142;5.364;2022-07-23T13:36:38;4.13;;;2.47;;
69594;SDS011;56800;52.142;5.364;2022-07-23T13:39:05;5.05;;;3.20;;
69594;SDS011;56800;52.142;5.364;2022-07-23T13:41:35;3.85;;;2.50;;
69594;SDS011;56800;52.142;5.364;2022-07-23T13:44:03;3.85;;;2.47;;
69594;SDS011;56800;52.142;5.364;2022-07-23T13:46:29;4.20;;;2.25;;
69594;SDS011;56800;52.142;5.364;2022-07-23T13:48:56;4.82;;;2.65;;
69594;SDS011;56800;52.142;5.364;2022-07-23T13:51:25;3.50;;;2.38;;
69594;SDS011;56800;52.142;5.364;2022-07-23T13:53:53;5.70;;;2.53;;
69594;SDS011;56800;52.142;5.364;2022-07-23T13:56:20;4.10;;;2.90;;
69594;SDS011;56800;52.142;5.364;2022-07-23T13:58:47;5.78;;;2.83;;
69594;SDS011;56800;52.142;5.364;2022-07-23T14:01:14;5.60;;;2.95;;
69594;SDS011;56800;52.142;5.364;2022-07-23T14:03:43;4.23;;;2.63;;
69594;SDS011;56800;52.142;5.364;2022-07-23T14:06:10;4.72;;;3.35;;
69594;SDS011;56800;52.142;5.364;2022-07-23T14:08:42;6.50;;;3.03;;
69594;SDS011;56800;52.142;5.364;2022-07-23T14:11:11;4.93;;;3.55;;
69594;SDS011;56800;52.142;5.364;2022-07-23T14:13:38;5.20;;;3.20;;
69594;SDS011;56800;52.142;5.364;2022-07-23T14:16:06;6.25;;;3.38;;
69594;SDS011;56800;52.142;5.364;2022-07-23T14:18:33;6.63;;;3.17;;
69594;SDS011;56800;52.142;5.364;2022-07-23T14:21:01;4.35;;;2.92;;
69594;SDS011;56800;52.142;5.364;2022-07-23T14:23:28;7.40;;;2.60;;
69594;SDS011;56800;52.142;5.364;2022-07-23T14:25:56;6.57;;;3.08;;
69594;SDS011;56800;52.142;5.364;2022-07-23T14:28:23;4.50;;;2.40;;
69594;SDS011;56800;52.142;5.364;2022-07-23T14:30:49;4.13;;;2.72;;
69594;SDS011;56800;52.142;5.364;2022-07-23T14:33:17;3.53;;;3.00;;
69594;SDS011;56800;52.142;5.364;2022-07-23T14:35:43;5.78;;;3.03;;
69594;SDS011;56800;52.142;5.364;2022-07-23T14:38:10;4.32;;;3.03;;
69594;SDS011;56800;52.142;5.364;2022-07-23T14:40:39;6.32;;;3.78;;
69594;SDS011;56800;52.142;5.364;2022-07-23T14:43:06;4.82;;;3.03;;
69594;SDS011;56800;52.142;5.364;2022-07-23T14:45:35;4.43;;;2.03;;
69594;SDS011;56800;52.142;5.364;2022-07-23T14:48:02;6.60;;;2.78;;
69594;SDS011;56800;52.142;5.364;2022-07-23T14:50:29;4.53;;;2.80;;
69594;SDS011;56800;52.142;5.364;2022-07-23T14:52:56;7.03;;;2.72;;
69594;SDS011;56800;52.142;5.364;2022-07-23T14:55:23;4.88;;;2.75;;
69594;SDS011;56800;52.142;5.364;2022-07-23T14:57:50;4.35;;;2.65;;
69594;SDS011;56800;52.142;5.364;2022-07-23T15:00:17;5.65;;;2.50;;
69594;SDS011;56800;52.142;5.364;2022-07-23T15:02:49;8.55;;;3.10;;
69594;SDS011;56800;52.142;5.364;2022-07-23T15:05:20;5.65;;;2.83;;
69594;SDS011;56800;52.142;5.364;2022-07-23T15:07:47;5.22;;;2.90;;
69594;SDS011;56800;52.142;5.364;2022-07-23T15:10:15;5.28;;;3.17;;
69594;SDS011;56800;52.142;5.364;2022-07-23T15:12:47;4.57;;;2.72;;
69594;SDS011;56800;52.142;5.364;2022-07-23T15:15:14;4.40;;;2.80;;
69594;SDS011;56800;52.142;5.364;2022-07-23T15:17:41;5.97;;;3.25;;
69594;SDS011;56800;52.142;5.364;2022-07-23T15:20:08;4.13;;;3.03;;
69594;SDS011;56800;52.142;5.364;2022-07-23T15:22:35;4.00;;;3.10;;
69594;SDS011;56800;52.142;5.364;2022-07-23T15:25:02;5.97;;;3.45;;
69594;SDS011;56800;52.142;5.364;2022-07-23T15:27:30;6.07;;;3.03;;
69594;SDS011;56800;52.142;5.364;2022-07-23T15:29:56;5.05;;;4.40;;
69594;SDS011;56800;52.142;5.364;2022-07-23T15:32:23;4.60;;;2.85;;
69594;SDS011;56800;52.142;5.364;2022-07-23T15:34:54;5.03;;;2.80;;
69594;SDS011;56800;52.142;5.364;2022-07-23T15:37:21;3.65;;;2.33;;
69594;SDS011;56800;52.142;5.364;2022-07-23T15:39:52;6.20;;;2.67;;
69594;SDS011;56800;52.142;5.364;2022-07-23T15:42:19;5.75;;;2.95;;